Espyville, Pennsylvania
Current Conditions -  °F | °C
As of 5:53 PM on Wednesday 26 Nov 2014 (Local Time) from KGKJ Reporting Station
Overcast Overcast  
Wind Chill: 33°   Ceiling: 1800
Heat Index: 33°   Visibility: 10mi
Dew Point: 28°   Wind: 3mph
Humidity: 82%   Direction: 50°NE
Pressure: 30"   Gusts: NA
Location:  41.6811°N, 80.4288°W
Report Text: KGKJ 262253Z AUTO 05003KT 10SM OVC018 01/M02 A3000 RMK AO2 SLP171 T00061022 TSNO
Loading
Personal Weather Stations






























Interactive Weather Map New forecast layout! Learn more

10-Day Weather Forecast

Advertisements
Track Severe Weather on mobile